Time;durP1;ratioP1;P1;durP2;ratioP2;P2;SDS_P1;SDS_P2;PMS_P1;PMS_P2;Temp;Humidity;BMP_temperature;BMP_pressure;BME280_temperature;BME280_humidity;BME280_pressure;Samples;Min_cycle;Max_cycle;Signal;HPM_P1;HPM_P2
2022/03/05 00:02:06;;;;;;;33.70;17.02;;;;;;;-1.19;76.15;101974.56;4998160;28;20453;-72
2022/03/05 00:04:32;;;;;;;35.95;15.73;;;;;;;-1.20;76.21;101982.19;5014912;28;20033;-72
2022/03/05 00:07:02;;;;;;;31.85;15.50;;;;;;;-1.26;76.45;101980.16;4992915;28;20026;-72
2022/03/05 00:09:28;;;;;;;;;;;;;;;-1.25;73.23;101974.19;5010699;28;20482;-72
2022/03/05 00:11:53;;;;;;;28.17;14.07;;;;;;;-1.29;76.05;101977.44;5005740;28;20002;-71
2022/03/05 00:14:18;;;;;;;38.17;18.42;;;;;;;-1.31;76.48;101977.31;5030327;28;20036;-72
2022/03/05 00:16:47;;;;;;;36.22;17.02;;;;;;;-1.34;76.64;101976.28;5015521;28;20029;-72
2022/03/05 00:19:12;;;;;;;33.00;15.45;;;;;;;-1.37;76.71;101970.97;5011268;28;20054;-73
2022/03/05 00:21:39;;;;;;;36.97;16.23;;;;;;;-1.38;77.08;101967.50;4997802;28;20147;-71
2022/03/05 00:24:04;;;;;;;29.92;17.23;;;;;;;-1.40;77.51;101972.56;5014376;28;20037;-73
2022/03/05 00:26:30;;;;;;;44.53;19.80;;;;;;;-1.42;77.46;101969.03;5030109;28;20140;-71
2022/03/05 00:28:58;;;;;;;38.22;18.48;;;;;;;-1.47;76.88;101977.28;5030693;28;20033;-71
2022/03/05 00:31:23;;;;;;;33.35;16.60;;;;;;;-1.47;77.95;101975.59;5007173;28;20044;-72
2022/03/05 00:33:49;;;;;;;38.10;20.52;;;;;;;-1.50;77.84;101972.84;4997205;28;20014;-72
2022/03/05 00:36:15;;;;;;;36.33;17.42;;;;;;;-1.52;77.97;101974.47;4997679;28;20030;-73
2022/03/05 00:38:40;;;;;;;35.95;18.17;;;;;;;-1.56;77.76;101969.94;4998257;28;20040;-72
2022/03/05 00:41:06;;;;;;;35.30;16.88;;;;;;;-1.63;78.10;101976.41;5011194;28;20320;-72
2022/03/05 00:43:31;;;;;;;40.35;17.70;;;;;;;-1.67;78.38;101973.59;5013665;28;20029;-72
2022/03/05 00:45:57;;;;;;;30.77;17.80;;;;;;;-1.65;78.33;101971.97;5017294;28;20079;-72
2022/03/05 00:48:23;;;;;;;36.80;18.98;;;;;;;-1.69;78.21;101972.63;5013603;28;20438;-73
2022/03/05 00:50:49;;;;;;;36.15;17.52;;;;;;;-1.68;78.75;101974.38;5011268;28;20551;-72
2022/03/05 00:53:17;;;;;;;38.55;18.45;;;;;;;-1.72;78.40;101972.44;4993207;28;20120;-72
2022/03/05 00:55:46;;;;;;;29.55;16.25;;;;;;;-1.70;78.39;101968.28;4997279;28;20393;-72
2022/03/05 00:58:13;;;;;;;36.50;17.75;;;;;;;-1.76;78.70;101969.69;5010215;28;20026;-72
2022/03/05 01:00:39;;;;;;;45.15;20.27;;;;;;;-1.77;78.99;101970.53;4998141;28;20099;-71
2022/03/05 01:03:05;;;;;;;34.65;18.90;;;;;;;-1.80;78.54;101962.59;4995408;28;20452;-71
2022/03/05 01:05:30;;;;;;;38.55;20.05;;;;;;;-1.85;79.47;101961.47;5003941;28;20030;-71
2022/03/05 01:07:56;;;;;;;39.00;17.90;;;;;;;-1.86;79.28;101964.84;4996917;28;20031;-72
2022/03/05 01:10:22;;;;;;;37.67;20.20;;;;;;;-1.90;79.40;101962.00;5028823;28;20033;-71
2022/03/05 01:12:47;;;;;;;35.97;17.50;;;;;;;-1.95;79.84;101957.50;4996813;28;20084;-71
2022/03/05 01:15:15;;;;;;;45.55;22.17;;;;;;;-1.96;79.71;101968.56;5012296;28;20499;-73
2022/03/05 01:17:41;;;;;;;39.88;19.38;;;;;;;-1.92;79.32;101961.94;5013608;28;20039;-71
2022/03/05 01:20:07;;;;;;;41.33;18.90;;;;;;;-2.00;79.23;101960.59;5012593;28;20045;-71
2022/03/05 01:22:32;;;;;;;42.35;19.20;;;;;;;-2.02;79.73;101955.38;5013459;28;20033;-71
2022/03/05 01:24:58;;;;;;;38.55;19.00;;;;;;;-2.06;79.24;101958.56;5013052;28;20461;-73
2022/03/05 01:27:28;;;;;;;37.45;18.33;;;;;;;-2.07;79.74;101961.03;5013735;28;20033;-72
2022/03/05 01:29:53;;;;;;;37.78;19.45;;;;;;;-2.11;79.64;101960.88;5013749;28;20041;-73
2022/03/05 01:32:21;;;;;;;36.33;17.33;;;;;;;-2.13;79.89;101961.56;4996885;28;20038;-72
2022/03/05 01:34:47;;;;;;;41.25;17.95;;;;;;;-2.15;79.81;101958.91;5029320;28;20041;-71
2022/03/05 01:37:13;;;;;;;39.45;17.92;;;;;;;-2.20;80.33;101955.19;5012425;28;20029;-71
2022/03/05 01:39:41;;;;;;;41.42;20.98;;;;;;;-2.20;80.25;101954.31;5013293;28;20500;-72
2022/03/05 01:42:07;;;;;;;42.30;20.98;;;;;;;-2.26;80.46;101947.13;5010897;28;20034;-71
2022/03/05 01:44:32;;;;;;;37.17;19.58;;;;;;;-2.30;80.41;101943.53;5015672;28;20040;-71
2022/03/05 01:47:03;;;;;;;35.22;19.50;;;;;;;-2.27;80.26;101956.53;5013592;28;20045;-71
2022/03/05 01:49:29;;;;;;;;;;;;;;;-2.30;77.94;101946.09;5030090;28;20037;-71
2022/03/05 01:51:56;;;;;;;42.25;17.33;;;;;;;-2.33;80.49;101951.03;5013458;28;19967;-71
2022/03/05 01:54:22;;;;;;;38.78;18.63;;;;;;;-2.41;80.68;101951.38;5032429;28;20033;-73
2022/03/05 01:56:48;;;;;;;46.25;19.50;;;;;;;-2.46;80.67;101949.44;5017005;28;20033;-71
2022/03/05 01:59:13;;;;;;;36.88;17.73;;;;;;;-2.49;80.90;101951.78;5016630;28;20049;-71
2022/03/05 02:01:39;;;;;;;42.20;19.80;;;;;;;-2.50;80.83;101956.84;5016202;28;20136;-72
2022/03/05 02:04:07;;;;;;;39.33;20.48;;;;;;;-2.53;81.07;101954.09;5033049;28;20032;-72
2022/03/05 02:06:34;;;;;;;41.45;18.98;;;;;;;-2.54;81.18;101963.50;5017402;28;20029;-72
2022/03/05 02:09:00;;;;;;;36.38;18.88;;;;;;;-2.61;81.23;101962.22;5015996;28;20044;-72
2022/03/05 02:11:27;;;;;;;35.45;17.88;;;;;;;-2.63;81.71;101960.34;5032144;28;20083;-72
2022/03/05 02:13:53;;;;;;;41.25;20.00;;;;;;;-2.64;82.15;101958.59;5008988;28;20030;-72
2022/03/05 02:16:20;;;;;;;41.25;18.13;;;;;;;-2.68;81.83;101961.78;4999977;28;20063;-72
2022/03/05 02:18:48;;;;;;;44.53;20.67;;;;;;;-2.68;81.90;101960.09;5016104;28;20060;-72
2022/03/05 02:21:15;;;;;;;37.15;20.63;;;;;;;-2.72;81.91;101957.25;5031518;28;20401;-71
2022/03/05 02:23:40;;;;;;;46.03;20.17;;;;;;;-2.73;81.83;101960.59;5032556;28;20032;-71
2022/03/05 02:26:06;;;;;;;39.22;19.52;;;;;;;-2.77;82.09;101949.28;5002169;28;20041;-71
2022/03/05 02:28:36;;;;;;;40.78;21.52;;;;;;;-2.82;82.53;101956.69;5030966;28;20029;-71
2022/03/05 02:31:03;;;;;;;35.92;18.88;;;;;;;-2.86;82.38;101954.75;5020943;28;20038;-71
2022/03/05 02:33:31;;;;;;;41.10;18.67;;;;;;;-2.85;82.90;101951.38;5025978;28;20486;-71
2022/03/05 02:35:57;;;;;;;37.40;20.42;;;;;;;-2.90;82.42;101945.09;5005977;28;20041;-71
2022/03/05 02:38:25;;;;;;;42.70;19.60;;;;;;;-2.96;82.79;101940.47;5000417;28;20035;-72
2022/03/05 02:40:56;;;;;;;40.67;18.88;;;;;;;-2.97;82.56;101942.94;5026372;28;20482;-72
2022/03/05 02:43:26;;;;;;;42.67;20.77;;;;;;;-3.00;82.77;101933.38;5015222;28;20064;-72
2022/03/05 02:45:55;;;;;;;39.55;19.02;;;;;;;-3.07;82.48;101944.06;5026400;28;20037;-71
2022/03/05 02:48:22;;;;;;;37.03;17.65;;;;;;;-3.08;82.53;101937.16;5021466;28;20417;-72
2022/03/05 02:50:49;;;;;;;39.28;19.20;;;;;;;-3.10;82.97;101943.88;4993168;28;20516;-72
2022/03/05 02:53:16;;;;;;;39.53;20.20;;;;;;;-3.12;83.06;101945.44;5024936;28;20425;-72
2022/03/05 02:55:45;;;;;;;42.35;20.45;;;;;;;-3.13;82.97;101943.69;5003124;28;20029;-72
2022/03/05 02:58:14;;;;;;;38.45;18.92;;;;;;;-3.16;83.27;101943.47;5010015;28;20056;-72
2022/03/05 03:00:43;;;;;;;41.13;18.73;;;;;;;-3.23;83.12;101944.78;5008951;28;20515;-73
2022/03/05 03:03:09;;;;;;;49.65;21.25;;;;;;;-3.29;82.98;101941.81;5010147;28;20151;-73
2022/03/05 03:05:35;;;;;;;37.33;18.45;;;;;;;-3.35;82.72;101936.31;4987750;28;20604;-73
2022/03/05 03:08:02;;;;;;;41.08;17.38;;;;;;;-3.37;83.18;101937.91;5011466;28;20052;-72
2022/03/05 03:10:28;;;;;;;38.60;19.75;;;;;;;-3.39;83.36;101927.56;4997584;28;20065;-72
2022/03/05 03:12:54;;;;;;;40.67;20.45;;;;;;;-3.42;83.58;101931.59;4991940;28;20052;-72
2022/03/05 03:15:22;;;;;;;37.10;18.23;;;;;;;-3.43;83.74;101927.25;4998708;28;20064;-72
2022/03/05 03:17:50;;;;;;;46.50;18.42;;;;;;;-3.42;83.93;101926.47;4991499;28;20136;-72
2022/03/05 03:20:21;;;;;;;43.75;21.05;;;;;;;-3.44;83.90;101917.81;5024455;28;20053;-71
2022/03/05 03:22:47;;;;;;;42.05;19.80;;;;;;;-3.45;84.20;101918.59;5023692;28;20082;-72
2022/03/05 03:25:13;;;;;;;42.60;19.27;;;;;;;-3.46;84.33;101921.94;5010915;28;20037;-71
2022/03/05 03:27:42;;;;;;;44.88;20.55;;;;;;;-3.50;84.56;101916.63;5027660;28;20499;-71
2022/03/05 03:30:10;;;;;;;43.78;19.58;;;;;;;-3.53;84.37;101916.44;5031587;28;20068;-72
2022/03/05 03:32:36;;;;;;;42.10;21.30;;;;;;;-3.52;84.65;101925.91;5013023;28;20102;-72
2022/03/05 03:35:03;;;;;;;51.10;22.95;;;;;;;-3.55;84.63;101922.25;5009229;28;20124;-72
2022/03/05 03:37:47;;;;;;;51.17;21.55;;;;;;;-3.56;84.82;101923.03;5012933;28;20144;-72
2022/03/05 03:40:15;;;;;;;42.20;20.58;;;;;;;-3.55;83.77;101924.81;5024857;28;20040;-72
2022/03/05 03:42:43;;;;;;;41.60;19.38;;;;;;;-3.57;84.18;101924.72;5019563;28;20053;-72
2022/03/05 03:45:09;;;;;;;44.83;20.70;;;;;;;-3.56;84.70;101921.38;5014622;28;20486;-72
2022/03/05 03:47:36;;;;;;;41.35;21.35;;;;;;;-3.60;84.51;101929.66;5012208;28;20025;-72
2022/03/05 03:50:04;;;;;;;40.35;21.15;;;;;;;-3.56;84.32;101934.19;5009559;28;20029;-73
2022/03/05 03:52:31;;;;;;;45.95;19.70;;;;;;;-3.55;84.69;101935.97;5028727;28;20060;-73
2022/03/05 03:54:57;;;;;;;44.20;20.25;;;;;;;-3.55;84.58;101938.53;5030945;28;20048;-73
2022/03/05 03:57:23;;;;;;;48.85;20.25;;;;;;;-3.57;85.09;101934.97;5014352;28;20033;-72
2022/03/05 03:59:51;;;;;;;42.95;20.50;;;;;;;-3.61;84.61;101935.56;5030713;28;20116;-72
2022/03/05 04:02:18;;;;;;;39.17;19.08;;;;;;;-3.66;84.93;101936.97;5014343;28;20045;-73
2022/03/05 04:04:43;;;;;;;46.35;20.17;;;;;;;-3.68;85.39;101939.44;5030242;28;20445;-73
2022/03/05 04:09:54;;;;;;;45.88;19.98;;;;;;;-3.75;85.13;101932.16;5023003;28;20507;-74
2022/03/05 04:12:20;;;;;;;38.05;19.50;;;;;;;-3.78;84.70;101938.75;5013230;28;20029;-74
2022/03/05 04:14:46;;;;;;;50.60;18.77;;;;;;;-3.85;85.02;101932.31;5029847;28;20061;-73
2022/03/05 04:17:12;;;;;;;37.65;20.70;;;;;;;-3.87;85.06;101937.34;5009784;28;20120;-73
2022/03/05 04:19:39;;;;;;;41.92;21.15;;;;;;;-3.90;85.35;101934.59;4989710;28;20513;-73
2022/03/05 04:22:05;;;;;;;40.97;18.65;;;;;;;-3.90;85.74;101944.84;5012885;28;20028;-74
2022/03/05 04:24:31;;;;;;;41.22;20.30;;;;;;;-3.90;85.63;101944.84;5014085;28;20041;-73
2022/03/05 04:26:57;;;;;;;46.85;20.70;;;;;;;-3.91;85.87;101945.63;5029813;28;20035;-74
2022/03/05 04:29:23;;;;;;;42.20;23.45;;;;;;;-3.91;85.78;101953.31;5013679;28;20075;-74
2022/03/05 04:31:49;;;;;;;53.47;22.73;;;;;;;-3.90;85.87;101946.53;5029383;28;20559;-74
2022/03/05 04:34:15;;;;;;;57.20;22.13;;;;;;;-3.91;85.44;101947.31;5013159;28;20022;-74
2022/03/05 04:36:43;;;;;;;53.50;22.13;;;;;;;-3.92;85.95;101946.44;5012869;28;20040;-73
2022/03/05 04:39:08;;;;;;;42.92;19.58;;;;;;;-3.92;85.61;101954.13;5030352;28;20029;-72
2022/03/05 04:41:34;;;;;;;49.08;21.45;;;;;;;-3.94;86.20;101954.78;5013403;28;20041;-74
2022/03/05 04:43:59;;;;;;;41.67;19.88;;;;;;;-3.96;86.23;101952.13;5029384;28;20040;-74
2022/03/05 04:46:25;;;;;;;41.25;21.92;;;;;;;-3.95;86.22;101953.00;5013316;28;20038;-73
2022/03/05 04:48:53;;;;;;;43.15;20.80;;;;;;;-3.98;86.35;101956.25;4996859;28;20029;-73
2022/03/05 04:51:18;;;;;;;43.47;20.58;;;;;;;-3.96;85.89;101954.69;4997413;28;20065;-73
2022/03/05 04:53:44;;;;;;;53.60;20.83;;;;;;;-4.00;86.27;101952.72;4997246;28;20071;-74
2022/03/05 04:56:09;;;;;;;46.97;20.67;;;;;;;-4.02;86.37;101955.19;5030074;28;20389;-74
2022/03/05 04:58:35;;;;;;;43.88;20.90;;;;;;;-4.04;86.55;101958.41;5013568;28;20481;-73
2022/03/05 05:01:01;;;;;;;48.58;21.77;;;;;;;-4.07;85.78;101956.53;4996870;28;20434;-74
2022/03/05 05:03:27;;;;;;;57.90;23.10;;;;;;;-4.06;86.68;101957.44;4997765;28;20037;-74
2022/03/05 05:05:52;;;;;;;49.10;22.92;;;;;;;-4.05;86.04;101964.31;4997307;28;20038;-74
2022/03/05 05:08:18;;;;;;;48.50;21.90;;;;;;;-4.10;86.64;101960.59;5013782;28;20026;-74
2022/03/05 05:10:46;;;;;;;47.10;21.10;;;;;;;-4.09;86.58;101967.50;5030325;28;20033;-74
2022/03/05 05:13:11;;;;;;;47.00;22.80;;;;;;;-4.10;86.40;101969.16;4995855;28;20033;-72
2022/03/05 05:15:37;;;;;;;46.70;23.27;;;;;;;-4.12;86.58;101962.13;5028895;28;20044;-74
2022/03/05 05:18:02;;;;;;;43.80;21.63;;;;;;;-4.13;86.39;101968.06;5004215;28;20049;-74
2022/03/05 05:20:30;;;;;;;48.35;21.15;;;;;;;-4.14;86.62;101969.72;5005380;28;20137;-73
2022/03/05 05:22:58;;;;;;;54.17;20.95;;;;;;;-4.16;86.70;101963.63;5023099;28;20036;-73
2022/03/05 05:25:26;;;;;;;53.35;23.08;;;;;;;-4.19;86.78;101971.97;4991697;28;20095;-74
2022/03/05 05:27:51;;;;;;;47.78;22.20;;;;;;;-4.24;86.44;101972.47;5030559;28;20390;-73
2022/03/05 05:30:19;;;;;;;45.97;20.40;;;;;;;-4.23;86.75;101980.25;5001209;28;20026;-74
2022/03/05 05:32:45;;;;;;;46.85;20.77;;;;;;;-4.25;86.02;101986.94;5012085;28;20037;-74
2022/03/05 05:35:10;;;;;;;36.22;18.35;;;;;;;-4.25;86.21;101976.72;5033691;28;20041;-75
2022/03/05 05:37:38;;;;;;;55.15;22.45;;;;;;;-4.28;85.95;101986.75;5017130;28;20029;-73
2022/03/05 05:40:04;;;;;;;47.28;20.67;;;;;;;-4.27;86.45;101991.06;5001012;28;20037;-72
2022/03/05 05:42:32;;;;;;;55.17;21.00;;;;;;;-4.23;86.05;101989.59;5017278;28;20108;-72
2022/03/05 05:44:57;;;;;;;53.60;21.35;;;;;;;-4.21;86.13;101988.94;5023993;28;20044;-72
2022/03/05 05:47:23;;;;;;;48.10;21.95;;;;;;;-4.18;86.12;101984.00;5033734;28;20420;-73
2022/03/05 05:49:53;;;;;;;45.80;19.98;;;;;;;-4.20;86.29;101980.44;5033710;28;20406;-73
2022/03/05 05:52:21;;;;;;;51.05;22.63;;;;;;;-4.20;86.34;101995.81;5009472;28;20394;-73
2022/03/05 05:54:52;;;;;;;48.10;21.05;;;;;;;-4.15;86.29;101988.44;5024690;28;20022;-72
2022/03/05 05:57:18;;;;;;;48.33;20.50;;;;;;;-4.13;86.44;101993.66;5024375;28;20104;-71
2022/03/05 05:59:47;;;;;;;46.80;22.02;;;;;;;-4.12;86.29;101987.75;5014607;28;20030;-73
2022/03/05 06:02:13;;;;;;;40.47;19.48;;;;;;;-4.10;85.96;101984.50;5012209;28;20120;-71
2022/03/05 06:04:42;;;;;;;40.95;18.92;;;;;;;-4.07;85.52;101979.59;5014471;28;20073;-72
2022/03/05 06:07:08;;;;;;;51.55;22.88;;;;;;;-4.04;86.14;101976.34;4999670;28;20045;-72
2022/03/05 06:09:43;;;;;;;51.10;20.08;;;;;;;-4.00;86.06;101978.31;4997789;28;20045;-72
2022/03/05 06:12:17;;;;;;;48.28;21.42;;;;;;;-3.96;86.27;101982.88;5009458;28;20044;-72
2022/03/05 06:14:43;;;;;;;52.33;23.42;;;;;;;-3.98;86.52;101986.97;5007736;28;20380;-73
2022/03/05 06:17:11;;;;;;;46.90;20.63;;;;;;;-3.97;86.59;101986.19;5009600;28;20389;-72
2022/03/05 06:19:38;;;;;;;55.20;24.70;;;;;;;-3.98;86.77;101986.09;4997200;28;20200;-74
2022/03/05 06:22:09;;;;;;;57.53;22.50;;;;;;;-3.98;86.42;101979.28;5016379;28;20033;-73
2022/03/05 06:24:40;;;;;;;48.30;22.30;;;;;;;-3.95;86.70;101988.88;5032009;28;20052;-74
2022/03/05 06:27:06;;;;;;;50.15;23.95;;;;;;;-3.93;86.18;101985.63;5011261;28;20041;-72
2022/03/05 06:29:37;;;;;;;46.60;23.02;;;;;;;-3.87;85.95;101985.13;5016949;28;20045;-73
2022/03/05 06:32:04;;;;;;;47.17;22.70;;;;;;;-3.85;86.14;101994.69;5011186;28;20048;-72
2022/03/05 06:34:32;;;;;;;47.55;22.40;;;;;;;-3.83;85.75;101995.69;5010496;28;20405;-71
2022/03/05 06:37:01;;;;;;;48.42;24.23;;;;;;;-3.77;85.81;101984.06;4997110;28;20461;-72
2022/03/05 06:39:30;;;;;;;55.22;24.50;;;;;;;-3.70;86.40;101991.34;5031841;28;20037;-72
2022/03/05 06:41:57;;;;;;;46.20;22.33;;;;;;;-3.54;86.68;101996.66;4999030;28;20052;-72
2022/03/05 06:44:23;;;;;;;51.40;25.10;;;;;;;-3.31;85.74;101994.69;5012727;28;20128;-72
2022/03/05 06:46:54;;;;;;;46.97;25.23;;;;;;;-3.15;85.08;101992.31;4995853;28;20037;-72
2022/03/05 06:49:22;;;;;;;52.50;23.70;;;;;;;-3.00;84.78;101991.50;5023160;28;20061;-73
2022/03/05 06:51:50;;;;;;;44.55;22.73;;;;;;;-2.83;84.40;101993.41;5024079;28;20041;-72
2022/03/05 06:54:19;;;;;;;58.17;24.65;;;;;;;-2.62;83.40;101995.50;5009875;28;20037;-73
2022/03/05 06:56:45;;;;;;;49.75;24.80;;;;;;;-2.31;83.71;101997.34;5012462;28;20401;-73
2022/03/05 06:59:13;;;;;;;43.25;21.08;;;;;;;-1.98;82.82;101997.56;5005982;28;20473;-72
2022/03/05 07:01:42;;;;;;;53.10;23.50;;;;;;;-1.60;81.53;101997.16;5006567;28;20045;-72
2022/03/05 07:04:08;;;;;;;52.53;23.10;;;;;;;-0.88;80.18;102007.06;5007805;28;20462;-73
2022/03/05 07:06:39;;;;;;;51.38;24.00;;;;;;;-0.09;78.70;102009.44;4997969;28;20084;-73
2022/03/05 07:09:08;;;;;;;52.22;23.98;;;;;;;0.80;75.69;102012.03;5003749;28;20049;-72
2022/03/05 07:11:34;;;;;;;47.75;24.63;;;;;;;1.54;71.71;102007.63;5031094;28;20033;-72
2022/03/05 07:14:00;;;;;;;46.88;23.80;;;;;;;2.20;69.62;102004.41;4987810;28;20060;-72
2022/03/05 07:16:29;;;;;;;51.25;26.00;;;;;;;3.06;70.00;102018.13;5024315;28;20036;-72
2022/03/05 07:18:55;;;;;;;41.10;22.85;;;;;;;3.66;65.94;102008.19;5011956;28;20385;-73
2022/03/05 07:21:22;;;;;;;47.25;23.27;;;;;;;4.33;63.40;102004.41;5004553;28;20030;-73
2022/03/05 07:23:49;;;;;;;47.55;22.67;;;;;;;5.01;60.30;102020.41;5004138;28;20036;-73
2022/03/05 07:26:19;;;;;;;41.88;23.08;;;;;;;5.57;57.72;102018.50;5014713;28;20042;-73
2022/03/05 07:28:46;;;;;;;42.03;22.23;;;;;;;6.07;56.69;102016.41;5008421;28;20462;-72
2022/03/05 07:31:15;;;;;;;45.45;26.05;;;;;;;6.49;55.89;102013.09;4999806;28;20064;-74
2022/03/05 07:33:40;;;;;;;47.88;25.50;;;;;;;7.00;53.68;102026.44;5026924;28;20113;-74
2022/03/05 07:36:06;;;;;;;46.75;25.20;;;;;;;7.29;52.50;102019.22;4992538;28;20129;-73
2022/03/05 07:38:33;;;;;;;52.00;26.98;;;;;;;7.80;51.58;102022.81;5005586;28;20033;-73
2022/03/05 07:41:02;;;;;;;49.22;26.58;;;;;;;8.04;49.50;102018.91;4992172;28;20068;-73
2022/03/05 07:43:31;;;;;;;45.65;26.55;;;;;;;8.65;50.36;102021.69;5008372;28;20509;-74
2022/03/05 07:45:57;;;;;;;38.70;24.30;;;;;;;9.11;48.38;102016.22;5006001;28;20128;-73
2022/03/05 07:48:23;;;;;;;47.53;27.10;;;;;;;9.46;46.94;102026.25;5001041;28;20040;-73
2022/03/05 07:50:52;;;;;;;49.42;26.55;;;;;;;9.83;45.54;102018.81;5000754;28;20033;-72
2022/03/05 07:53:20;;;;;;;47.60;26.20;;;;;;;10.16;43.75;102023.47;5012269;28;20040;-73
2022/03/05 07:55:48;;;;;;;46.53;25.80;;;;;;;10.40;44.05;102016.69;5027077;28;20033;-74
2022/03/05 07:58:13;;;;;;;44.42;25.48;;;;;;;10.82;42.44;102019.59;4994432;28;20034;-74
2022/03/05 08:00:41;;;;;;;44.60;26.65;;;;;;;11.18;42.00;102023.34;5026131;28;20033;-74
2022/03/05 08:03:07;;;;;;;45.50;26.30;;;;;;;11.05;40.96;102031.13;4990515;28;20029;-74
2022/03/05 08:05:33;;;;;;;42.40;24.33;;;;;;;11.34;40.47;102030.38;5009944;28;20140;-74
2022/03/05 08:08:18;;;;;;;44.63;25.75;;;;;;;11.98;43.32;102034.09;4988569;28;20034;-74
2022/03/05 08:10:44;;;;;;;50.00;27.48;;;;;;;12.01;38.99;102034.13;5002512;28;20033;-73
2022/03/05 08:13:17;;;;;;;44.40;25.67;;;;;;;12.10;40.88;102034.09;5030017;28;20029;-74
2022/03/05 08:15:48;;;;;;;43.95;27.40;;;;;;;12.51;38.12;102042.00;5017489;28;20030;-74
2022/03/05 08:18:22;;;;;;;44.72;27.88;;;;;;;12.78;38.12;102043.72;4996966;28;20132;-74
2022/03/05 08:20:52;;;;;;;52.28;27.63;;;;;;;13.10;38.00;102045.41;5010275;28;20401;-74
2022/03/05 08:23:18;;;;;;;46.40;27.77;;;;;;;13.98;36.61;102047.66;5012609;28;20033;-74
2022/03/05 08:25:44;;;;;;;47.10;28.40;;;;;;;14.36;33.95;102038.56;5013408;28;20037;-74
2022/03/05 08:28:10;;;;;;;50.17;26.95;;;;;;;14.31;33.72;102041.25;4990782;28;20040;-73
2022/03/05 08:30:36;;;;;;;42.55;26.00;;;;;;;14.09;33.53;102042.31;5005960;28;20121;-73
2022/03/05 08:33:02;;;;;;;41.05;25.58;;;;;;;14.14;33.31;102044.03;5012248;28;20049;-73
2022/03/05 08:35:28;;;;;;;48.03;27.90;;;;;;;13.81;34.10;102040.72;5018351;28;20025;-74
2022/03/05 08:37:54;;;;;;;49.60;31.23;;;;;;;13.94;34.46;102041.53;4993915;28;20033;-73
2022/03/05 08:40:20;;;;;;;46.30;26.98;;;;;;;14.17;33.48;102044.00;5017138;28;20120;-74
2022/03/05 08:42:50;;;;;;;57.88;32.20;;;;;;;14.26;33.73;102037.78;5025486;28;20048;-73
2022/03/05 08:45:19;;;;;;;53.78;30.58;;;;;;;14.96;33.46;102053.00;4992643;28;20041;-73
2022/03/05 08:48:02;;;;;;;72.88;42.42;;;;;;;15.13;31.55;102045.78;5019307;28;20118;-74
2022/03/05 08:50:31;;;;;;;80.32;49.28;;;;;;;15.35;32.23;102048.16;5027183;28;20053;-74
2022/03/05 08:53:00;;;;;;;59.85;36.00;;;;;;;15.43;32.46;102041.00;4993154;28;20038;-74
2022/03/05 08:55:29;;;;;;;51.47;31.00;;;;;;;15.87;31.91;102036.03;5007619;28;20037;-75
2022/03/05 08:57:55;;;;;;;48.65;27.45;;;;;;;16.07;30.04;102039.22;4992904;28;20347;-74
2022/03/05 09:00:21;;;;;;;40.20;24.83;;;;;;;16.26;29.76;102044.22;4993928;28;20091;-74
2022/03/05 09:02:47;;;;;;;48.97;28.55;;;;;;;16.45;29.11;102031.59;5026983;28;20056;-74
2022/03/05 09:05:14;;;;;;;50.42;30.33;;;;;;;16.55;29.18;102030.53;5010839;28;20080;-74
2022/03/05 09:07:42;;;;;;;47.15;29.65;;;;;;;16.99;30.35;102043.00;5029639;28;20049;-74
2022/03/05 09:10:08;;;;;;;51.42;30.35;;;;;;;17.74;28.27;102029.91;5014558;28;20033;-74
2022/03/05 09:12:35;;;;;;;48.50;30.45;;;;;;;18.29;27.48;102028.63;5008157;28;20029;-74
2022/03/05 09:15:05;;;;;;;56.60;33.03;;;;;;;18.66;27.76;102030.34;5028377;28;20029;-74
2022/03/05 09:17:31;;;;;;;54.10;35.00;;;;;;;19.70;27.01;102024.75;5012713;28;20033;-74
2022/03/05 09:20:00;;;;;;;50.28;31.27;;;;;;;20.21;26.27;102031.09;5013039;28;20478;-74
2022/03/05 09:22:26;;;;;;;50.00;31.38;;;;;;;20.56;24.44;102029.91;5004805;28;20379;-74
2022/03/05 09:24:56;;;;;;;47.90;31.02;;;;;;;19.77;25.14;102033.38;5010601;28;20034;-74
2022/03/05 09:27:22;;;;;;;55.60;32.13;;;;;;;19.24;24.05;102044.72;4993494;28;20040;-74
2022/03/05 09:29:48;;;;;;;48.00;30.55;;;;;;;17.50;26.88;102026.94;4992945;28;20111;-74
2022/03/05 09:32:14;;;;;;;48.67;29.50;;;;;;;15.61;29.03;102024.03;5007556;28;20117;-75
2022/03/05 09:34:45;;;;;;;72.53;43.13;;;;;;;14.13;32.49;102036.13;4997774;28;20429;-75
2022/03/05 09:37:12;;;;;;;56.67;38.15;;;;;;;12.76;33.84;102025.31;5013335;28;20042;-75
2022/03/05 09:39:41;;;;;;;61.80;36.00;;;;;;;11.80;36.68;102034.91;4995426;28;20109;-74
2022/03/05 09:42:07;;;;;;;48.17;32.00;;;;;;;10.96;38.60;102035.44;5024738;28;20485;-74
2022/03/05 09:44:38;;;;;;;50.75;32.58;;;;;;;10.48;40.49;102035.13;4994230;28;20041;-74
2022/03/05 09:47:06;;;;;;;55.50;34.95;;;;;;;9.92;41.91;102038.97;4998815;28;20385;-74
2022/03/05 09:49:40;;;;;;;57.88;34.03;;;;;;;9.41;41.64;102041.00;5017750;28;20056;-73
2022/03/05 09:52:09;;;;;;;48.67;32.00;;;;;;;9.73;42.39;102041.38;5023806;28;20033;-75
2022/03/05 09:54:36;;;;;;;56.42;33.75;;;;;;;11.68;39.22;102032.25;5001311;28;20041;-74
2022/03/05 09:57:16;;;;;;;47.95;30.88;;;;;;;13.28;36.59;102031.31;5023114;28;20394;-74
2022/03/05 09:59:42;;;;;;;48.05;29.85;;;;;;;14.55;32.74;102039.28;5010650;28;20046;-74
2022/03/05 10:02:14;;;;;;;51.35;29.27;;;;;;;15.36;32.52;102028.78;5005772;28;20545;-74
2022/03/05 10:04:41;;;;;;;48.22;29.77;;;;;;;17.08;30.20;102029.56;5009207;28;20069;-74
2022/03/05 10:07:09;;;;;;;55.47;30.45;;;;;;;18.77;27.08;102030.03;5011562;28;20025;-74
2022/03/05 10:09:38;;;;;;;50.20;28.60;;;;;;;19.83;26.39;102026.13;5022932;28;20045;-74
2022/03/05 10:12:26;;;;;;;53.38;31.70;;;;;;;20.95;24.55;102031.25;5008571;28;20037;-74
2022/03/05 10:15:24;;;;;;;53.25;31.35;;;;;;;20.79;26.39;102030.03;5021692;28;20076;-75
2022/03/05 10:18:01;;;;;;;51.67;32.88;;;;;;;20.20;25.08;102029.34;5018661;28;20129;-75
2022/03/05 10:20:34;;;;;;;47.72;30.13;;;;;;;19.36;25.40;102031.06;4952002;28;1627818;-75
2022/03/05 10:23:06;;;;;;;45.50;30.35;;;;;;;19.79;24.25;102031.59;5025700;28;20064;-74
2022/03/05 10:25:42;;;;;;;45.13;30.08;;;;;;;20.98;24.19;102024.94;5026054;28;20484;-75
2022/03/05 10:28:20;;;;;;;48.97;32.33;;;;;;;22.09;23.64;102025.97;5024136;28;20480;-75
2022/03/05 10:30:58;;;;;;;45.35;30.35;;;;;;;23.75;21.93;102025.72;5011248;28;20091;-75
2022/03/05 10:33:41;;;;;;;42.83;28.17;;;;;;;24.70;20.91;102029.94;5019769;28;20040;-75
2022/03/05 10:36:22;;;;;;;49.65;32.22;;;;;;;25.19;19.74;102038.03;5027420;28;20030;-75
2022/03/05 10:38:55;;;;;;;46.60;30.10;;;;;;;25.91;20.33;102032.25;5021676;28;20116;-75
2022/03/05 10:41:43;;;;;;;46.80;30.42;;;;;;;25.47;22.11;102039.19;5022978;28;20486;-75
2022/03/05 10:44:17;;;;;;;47.78;28.02;;;;;;;23.66;21.17;102037.75;5024523;28;20030;-74
2022/03/05 10:46:48;;;;;;;40.20;27.73;;;;;;;23.57;21.24;102031.97;5028219;28;20069;-75
2022/03/05 10:49:32;;;;;;;39.25;24.70;;;;;;;23.01;22.78;102026.47;5039514;28;20044;-75
2022/03/05 10:52:07;;;;;;;44.08;27.30;;;;;;;24.26;21.62;102025.91;5026066;28;20502;-75
2022/03/05 10:54:39;;;;;;;47.22;26.98;;;;;;;25.64;18.45;102030.19;5027393;28;20506;-75
2022/03/05 10:57:21;;;;;;;45.33;25.73;;;;;;;26.43;19.00;102036.41;5025933;28;20028;-75
2022/03/05 10:59:52;;;;;;;40.92;25.83;;;;;;;26.68;18.67;102038.50;5020308;28;20436;-75
2022/03/05 11:02:22;;;;;;;44.30;27.88;;;;;;;27.34;17.79;102036.25;5028200;28;20116;-75
2022/03/05 11:04:49;;;;;;;41.33;27.17;;;;;;;27.46;16.31;102031.88;5023851;28;20033;-76
2022/03/05 11:07:16;;;;;;;38.55;26.98;;;;;;;27.72;16.43;102029.31;4991391;28;20386;-75
2022/03/05 11:09:42;;;;;;;37.38;24.95;;;;;;;28.05;16.03;102037.00;5011223;28;20030;-76
2022/03/05 11:12:09;;;;;;;38.45;24.17;;;;;;;27.86;14.99;102031.97;5027851;28;20025;-73
2022/03/05 11:14:36;;;;;;;38.88;26.52;;;;;;;27.88;14.76;102031.84;5037508;28;20478;-73
2022/03/05 11:17:04;;;;;;;39.88;24.23;;;;;;;28.55;16.00;102034.53;5003949;28;20041;-73